Cuneyt Solakoglu — TCTN4 — position and weather

sailwx.info

Track history (hours):
 
Tides and Currents Weather Stations Pressure Air Temp Water Temp Dewpoint Dewpoint Depression Visibility Wind Speed Wind Dir Waves Ship Positions

Cuneyt Solakoglu

Last reported at 2014-Sep-18 11:30 UTC. Time now 2014-Sep-18 11:40 UTC.
Position N 40°51' E 029°16'.

Length 193 m; draft 6.4 m.

Type: Ship (hazmat cat A). MMSI: 271002676.

Date/timePositionNaut miles runAvg speedWind from/ knotsBaromVisibWave heightAir tempDewpointWater temp
2014-Sep-18 11:30N 40°51' E 029°16'0 0.0
2014-Sep-18 10:23N 40°51' E 029°16'0 0.2
2014-Sep-18 09:33N 40°51' E 029°16'1616.1
2014-Sep-18 08:34N 40°48' E 028°56'26816.5
2014-Sep-17 16:18N 37°51' E 024°35'3419.3
2014-Sep-17 14:32N 37°21' E 024°14'  
2014-Sep-13 16:03N 36°25' E 023°10'1019.0
2014-Sep-13 15:33N 36°32' E 023°18'2020.5
2014-Sep-13 14:33N 36°49' E 023°31'2320.2
2014-Sep-13 13:26N 37°08' E 023°46'2120.0
2014-Sep-13 12:22N 37°27' E 023°60'1720.4
2014-Sep-13 11:32N 37°41' E 024°11'2019.7
2014-Sep-13 10:33N 37°53' E 024°31'2520.2
2014-Sep-13 09:18N 38°15' E 024°47'1520.4
2014-Sep-13 08:33N 38°28' E 024°55'2020.1
2014-Sep-13 07:32N 38°47' E 025°07'2620.3
2014-Sep-13 06:16N 39°09' E 025°22'1420.2
2014-Sep-13 05:33N 39°22' E 025°31'17417.4
2014-Sep-12 19:32N 40°53' E 028°46'1919.3
2014-Sep-12 18:33N 40°50' E 029°10'5 4.4
2014-Sep-12 17:29N 40°51' E 029°16'0 0.0
2014-Sep-12 16:22N 40°51' E 029°16'0 0.0
2014-Sep-12 15:28N 40°51' E 029°16'0 0.0
2014-Sep-12 14:33N 40°51' E 029°16'0 0.0
2014-Sep-12 13:33N 40°51' E 029°16'0 0.0
2014-Sep-12 12:26N 40°51' E 029°16'0 0.0
2014-Sep-12 11:32N 40°51' E 029°16'0 0.0
2014-Sep-12 10:32N 40°51' E 029°16'0 0.0
2014-Sep-12 09:31N 40°51' E 029°16'0 0.0
2014-Sep-12 08:31N 40°51' E 029°16'0 0.0
2014-Sep-12 07:30N 40°51' E 029°16'0 0.0
2014-Sep-12 06:30N 40°51' E 029°16'0 0.0
2014-Sep-12 05:29N 40°51' E 029°16'0 0.0
2014-Sep-12 04:29N 40°51' E 029°16'0 0.0
2014-Sep-12 03:16N 40°51' E 029°16'0 0.0
2014-Sep-12 02:22N 40°51' E 029°16'0 0.0
2014-Sep-12 01:28N 40°51' E 029°16'0 0.0
2014-Sep-12 00:33N 40°51' E 029°16'0 0.0
2014-Sep-11 23:33N 40°51' E 029°16'0 0.0
2014-Sep-11 22:26N 40°51' E 029°16'0 0.0
2014-Sep-11 21:32N 40°51' E 029°16'0 0.0
2014-Sep-11 20:31N 40°51' E 029°16'0 0.0
2014-Sep-11 19:31N 40°51' E 029°16'0 0.0
2014-Sep-11 18:09N 40°51' E 029°16'0 0.0
2014-Sep-11 17:33N 40°51' E 029°16'0 0.0
2014-Sep-11 16:21N 40°51' E 029°16'0 0.0
2014-Sep-11 15:26N 40°51' E 029°16'0 0.0
2014-Sep-11 14:20N 40°51' E 029°16'0 0.0
2014-Sep-11 13:28N 40°51' E 029°16'0 0.0
2014-Sep-11 12:28N 40°51' E 029°16'0 0.0
2014-Sep-11 11:22N 40°51' E 029°16'0 0.0
2014-Sep-11 10:33N 40°51' E 029°16'0 0.0
2014-Sep-11 09:27N 40°51' E 029°16'3 3.0
2014-Sep-11 08:33N 40°51' E 029°13'1919.2
2014-Sep-11 07:33N 40°50' E 028°47'11618.1
2014-Sep-11 01:07N 40°10' E 026°23'914.7
2014-Sep-11 00:30N 40°03' E 026°16'1617.1
2014-Sep-10 23:33N 39°56' E 025°57'2019.6
2014-Sep-10 22:31N 39°38' E 025°45'6020.0
2014-Sep-10 19:30N 38°45' E 025°10'6519.7
2014-Sep-10 16:12N 37°46' E 024°33'710.1
2014-Sep-10 15:33N 37°40' E 024°30'2311.3
2014-Sep-10 13:33N 37°21' E 024°14'2611.8
2014-Sep-10 11:21N 37°01' E 023°53'1212.0
2014-Sep-10 10:21N 36°51' E 023°45'  
Track history (hours):
 
Tides and Currents Weather Stations Pressure Air Temp Water Temp Dewpoint Dewpoint Depression Visibility Wind Speed Wind Dir Waves Ship Positions

Cuneyt Solakoglu

Last reported at 2014-Sep-18 11:30 UTC. Time now 2014-Sep-18 11:40 UTC.
Position N 40°51' E 029°16'.

Length 193 m; draft 6.4 m.

Type: Ship (hazmat cat A). MMSI: 271002676.

Date/timePositionNaut miles runAvg speedWind from/ knotsBaromVisibWave heightAir tempDewpointWater temp
2014-Sep-18 11:30N 40°51' E 029°16'0 0.0
2014-Sep-18 10:23N 40°51' E 029°16'0 0.2
2014-Sep-18 09:33N 40°51' E 029°16'1616.1
2014-Sep-18 08:34N 40°48' E 028°56'26816.5
2014-Sep-17 16:18N 37°51' E 024°35'3419.3
2014-Sep-17 14:32N 37°21' E 024°14'  
2014-Sep-13 16:03N 36°25' E 023°10'1019.0
2014-Sep-13 15:33N 36°32' E 023°18'2020.5
2014-Sep-13 14:33N 36°49' E 023°31'2320.2
2014-Sep-13 13:26N 37°08' E 023°46'2120.0
2014-Sep-13 12:22N 37°27' E 023°60'1720.4
2014-Sep-13 11:32N 37°41' E 024°11'2019.7
2014-Sep-13 10:33N 37°53' E 024°31'2520.2
2014-Sep-13 09:18N 38°15' E 024°47'1520.4
2014-Sep-13 08:33N 38°28' E 024°55'2020.1
2014-Sep-13 07:32N 38°47' E 025°07'2620.3
2014-Sep-13 06:16N 39°09' E 025°22'1420.2
2014-Sep-13 05:33N 39°22' E 025°31'17417.4
2014-Sep-12 19:32N 40°53' E 028°46'1919.3
2014-Sep-12 18:33N 40°50' E 029°10'5 4.4
2014-Sep-12 17:29N 40°51' E 029°16'0 0.0
2014-Sep-12 16:22N 40°51' E 029°16'0 0.0
2014-Sep-12 15:28N 40°51' E 029°16'0 0.0
2014-Sep-12 14:33N 40°51' E 029°16'0 0.0
2014-Sep-12 13:33N 40°51' E 029°16'0 0.0
2014-Sep-12 12:26N 40°51' E 029°16'0 0.0
2014-Sep-12 11:32N 40°51' E 029°16'0 0.0
2014-Sep-12 10:32N 40°51' E 029°16'0 0.0
2014-Sep-12 09:31N 40°51' E 029°16'0 0.0
2014-Sep-12 08:31N 40°51' E 029°16'0 0.0
2014-Sep-12 07:30N 40°51' E 029°16'0 0.0
2014-Sep-12 06:30N 40°51' E 029°16'0 0.0
2014-Sep-12 05:29N 40°51' E 029°16'0 0.0
2014-Sep-12 04:29N 40°51' E 029°16'0 0.0
2014-Sep-12 03:16N 40°51' E 029°16'0 0.0
2014-Sep-12 02:22N 40°51' E 029°16'0 0.0
2014-Sep-12 01:28N 40°51' E 029°16'0 0.0
2014-Sep-12 00:33N 40°51' E 029°16'0 0.0
2014-Sep-11 23:33N 40°51' E 029°16'0 0.0
2014-Sep-11 22:26N 40°51' E 029°16'0 0.0
2014-Sep-11 21:32N 40°51' E 029°16'0 0.0
2014-Sep-11 20:31N 40°51' E 029°16'0 0.0
2014-Sep-11 19:31N 40°51' E 029°16'0 0.0
2014-Sep-11 18:09N 40°51' E 029°16'0 0.0
2014-Sep-11 17:33N 40°51' E 029°16'0 0.0
2014-Sep-11 16:21N 40°51' E 029°16'0 0.0
2014-Sep-11 15:26N 40°51' E 029°16'0 0.0
2014-Sep-11 14:20N 40°51' E 029°16'0 0.0
2014-Sep-11 13:28N 40°51' E 029°16'0 0.0
2014-Sep-11 12:28N 40°51' E 029°16'0 0.0
2014-Sep-11 11:22N 40°51' E 029°16'0 0.0
2014-Sep-11 10:33N 40°51' E 029°16'0 0.0
2014-Sep-11 09:27N 40°51' E 029°16'3 3.0
2014-Sep-11 08:33N 40°51' E 029°13'1919.2
2014-Sep-11 07:33N 40°50' E 028°47'11618.1
2014-Sep-11 01:07N 40°10' E 026°23'914.7
2014-Sep-11 00:30N 40°03' E 026°16'1617.1
2014-Sep-10 23:33N 39°56' E 025°57'2019.6
2014-Sep-10 22:31N 39°38' E 025°45'6020.0
2014-Sep-10 19:30N 38°45' E 025°10'6519.7
2014-Sep-10 16:12N 37°46' E 024°33'710.1
2014-Sep-10 15:33N 37°40' E 024°30'2311.3
2014-Sep-10 13:33N 37°21' E 024°14'2611.8
2014-Sep-10 11:21N 37°01' E 023°53'1212.0
2014-Sep-10 10:21N 36°51' E 023°45'  

Dump ship's entire track history